Decoded Metar for KOGD (OGDEN in UT, USA) (IATA:OGD) | Meteo·Mobile Aviation Weather
aviador You're here:

KOGD Decoded Metar

OGDEN in UT, USA
Report Time2018-10-23 10:53:00
UTC Time2018-10-23 11:26:17
Flight Rules vfr VFR
Wind160° at 07 kt
W.Decomp.*RWY 16: 6.8 kt HW 1.7 kt LCW
RWY 21: 3.1 kt HW 6.3 kt LCW
RWY 07: 1.7 kt HW 6.8 kt RCW
W.Rank160° ranks 2
Current wind is below 160° avg. (7.4)
Visibility9999 m
Phenomena:N/A
Clouds:Few 049 Hf
Overcast 065 Hf
Expected CloudBase > 1,600 ft AGL from Temp-Dew spread
Ceiling6,500 ft
Temp11°C (ISA +5)
Dew Point07°C (77% RH)
AAT7.8°C
QNH1018 hPa
Density Alt4,987 ft
Elevation4,439 ft
Report Wrong Elevation
Raw Report
KOGD 231053Z AUTO 16007KT 10SM FEW049 OVC065 11/07 A3007 RMK AO2
SLP151 T01060067=

Extra information for KOGD:More info

Metar Taf Metar & Taf Last 4 Metars F.Rules Stats Wind Profile Meteogram Temp Stats Airport Information Weather charts Add Link Nearby VenuesMetar ALERT Operation Metar Decoded Social comments

AIRNAV info for KOGD